Time;durP1;ratioP1;P1;durP2;ratioP2;P2;SDS_P1;SDS_P2;PMS_P1;PMS_P2;Temp;Humidity;BMP_temperature;BMP_pressure;BME280_temperature;BME280_humidity;BME280_pressure;Samples;Min_cycle;Max_cycle;Signal;HPM_P1;HPM_P2
2021/12/26 00:00:53;;;;;;;4.60;2.35;;;;;;;;;;5076394;28;20047;-72
2021/12/26 00:03:20;;;;;;;3.83;1.60;;;;;;;;;;5093370;28;20060;-72
2021/12/26 00:05:46;;;;;;;4.97;2.35;;;;;;;;;;5093108;28;20052;-73
2021/12/26 00:08:12;;;;;;;3.42;2.08;;;;;;;;;;5092908;28;20054;-72
2021/12/26 00:10:39;;;;;;;3.00;2.03;;;;;;;;;;5093246;28;20032;-72
2021/12/26 00:13:05;;;;;;;3.15;2.00;;;;;;;;;;5076218;28;20039;-72
2021/12/26 00:15:31;;;;;;;6.13;2.00;;;;;;;;;;5076255;28;20048;-72
2021/12/26 00:17:57;;;;;;;4.82;1.60;;;;;;;;;;5076152;28;20036;-72
2021/12/26 00:20:23;;;;;;;3.47;1.77;;;;;;;;;;5075780;28;20049;-72
2021/12/26 00:22:49;;;;;;;2.50;1.75;;;;;;;;;;5075946;28;20046;-72
2021/12/26 00:25:16;;;;;;;3.03;1.35;;;;;;;;;;5075894;28;20036;-72
2021/12/26 00:27:42;;;;;;;1.85;0.95;;;;;;;;;;5092797;28;20551;-72
2021/12/26 00:30:12;;;;;;;6.97;1.98;;;;;;;;;;5092619;28;20036;-72
2021/12/26 00:32:38;;;;;;;4.78;1.48;;;;;;;;;;5074074;28;20036;-72
2021/12/26 00:35:05;;;;;;;2.63;1.58;;;;;;;;;;5075164;28;20519;-72
2021/12/26 00:37:31;;;;;;;3.75;2.20;;;;;;;;;;5075229;28;20415;-72
2021/12/26 00:39:57;;;;;;;3.75;2.10;;;;;;;;;;5092145;28;20036;-72
2021/12/26 00:42:23;;;;;;;2.63;1.70;;;;;;;;;;5091939;28;20519;-72
2021/12/26 00:44:49;;;;;;;3.75;2.13;;;;;;;;;;5091975;28;20040;-72
2021/12/26 00:47:15;;;;;;;4.72;2.05;;;;;;;;;;5092237;28;20487;-72
2021/12/26 00:49:41;;;;;;;5.38;2.20;;;;;;;;;;5074801;28;20040;-72
2021/12/26 00:52:08;;;;;;;3.85;2.05;;;;;;;;;;5090976;28;20031;-72
2021/12/26 00:54:34;;;;;;;2.22;1.55;;;;;;;;;;5075305;28;20047;-72
2021/12/26 00:57:00;;;;;;;4.97;1.92;;;;;;;;;;5092025;28;20097;-72
2021/12/26 00:59:27;;;;;;;4.78;1.83;;;;;;;;;;5092098;28;20136;-72
2021/12/26 01:01:53;;;;;;;2.53;1.50;;;;;;;;;;5091823;28;20040;-72
2021/12/26 01:04:19;;;;;;;3.50;1.73;;;;;;;;;;5091385;28;20416;-72
2021/12/26 01:06:45;;;;;;;2.80;1.65;;;;;;;;;;5074796;28;20054;-71
2021/12/26 01:09:16;;;;;;;3.35;2.35;;;;;;;;;;5074538;28;20044;-71
2021/12/26 01:11:48;;;;;;;2.83;1.90;;;;;;;;;;5074851;28;20476;-71
2021/12/26 01:14:15;;;;;;;2.63;1.85;;;;;;;;;;5091647;28;20495;-71
2021/12/26 01:16:43;;;;;;;3.03;1.70;;;;;;;;;;5091633;28;20040;-71
2021/12/26 01:19:14;;;;;;;4.22;1.88;;;;;;;;;;5075030;28;20435;-71
2021/12/26 01:21:40;;;;;;;;;;;;;;;;;;5091785;28;20085;-71
2021/12/26 01:24:08;;;;;;;3.65;1.73;;;;;;;;;;5091657;28;19916;-71
2021/12/26 01:26:34;;;;;;;3.60;1.30;;;;;;;;;;5091242;28;20066;-71
2021/12/26 01:29:00;;;;;;;1.52;1.23;;;;;;;;;;5091172;28;20044;-72
2021/12/26 01:31:27;;;;;;;2.92;1.92;;;;;;;;;;5074196;28;20119;-71
2021/12/26 01:33:54;;;;;;;4.07;1.83;;;;;;;;;;5091031;28;20381;-71
2021/12/26 01:36:20;;;;;;;4.93;1.90;;;;;;;;;;5091019;28;20044;-72
2021/12/26 01:38:47;;;;;;;5.40;1.95;;;;;;;;;;5091172;28;20470;-72
2021/12/26 01:41:16;;;;;;;3.67;1.58;;;;;;;;;;5090933;28;20484;-72
2021/12/26 01:43:45;;;;;;;4.10;1.77;;;;;;;;;;5091081;28;20083;-72
2021/12/26 01:46:11;;;;;;;3.55;2.10;;;;;;;;;;5070730;28;20062;-72
2021/12/26 01:48:37;;;;;;;8.90;1.90;;;;;;;;;;5090050;28;20546;-72
2021/12/26 01:51:04;;;;;;;5.00;1.73;;;;;;;;;;5090286;28;20028;-72
2021/12/26 01:53:36;;;;;;;3.47;1.30;;;;;;;;;;5074181;28;20198;-72
2021/12/26 01:56:03;;;;;;;2.42;1.67;;;;;;;;;;5073761;28;20032;-72
2021/12/26 01:58:30;;;;;;;6.47;1.83;;;;;;;;;;5090796;28;20040;-72
2021/12/26 02:00:58;;;;;;;2.15;1.20;;;;;;;;;;5090692;28;20093;-71
2021/12/26 02:03:24;;;;;;;3.10;1.50;;;;;;;;;;5090782;28;20040;-71
2021/12/26 02:05:50;;;;;;;3.33;1.33;;;;;;;;;;5090712;28;20059;-72
2021/12/26 02:08:16;;;;;;;2.72;1.52;;;;;;;;;;5090778;28;20051;-72
2021/12/26 02:10:43;;;;;;;3.90;1.40;;;;;;;;;;5090453;28;20035;-71
2021/12/26 02:13:09;;;;;;;4.53;1.50;;;;;;;;;;5090624;28;20060;-71
2021/12/26 02:15:35;;;;;;;5.32;1.58;;;;;;;;;;5073689;28;20077;-71
2021/12/26 02:18:01;;;;;;;3.50;1.58;;;;;;;;;;5090327;28;20075;-71
2021/12/26 02:21:44;;;;;;;2.35;1.52;;;;;;;;;;5090795;28;20176;-71
2021/12/26 02:23:31;;;;;;;1.70;1.33;;;;;;;;;;5079104;28;20040;-71
2021/12/26 02:28:23;;;;;;;3.08;1.38;;;;;;;;;;5090229;28;20040;-71
2021/12/26 02:30:49;;;;;;;2.15;1.20;;;;;;;;;;5090612;28;20058;-71
2021/12/26 02:33:16;;;;;;;3.95;1.38;;;;;;;;;;5073418;28;20048;-71
2021/12/26 02:35:42;;;;;;;2.88;1.13;;;;;;;;;;5073606;28;20040;-72
2021/12/26 02:38:09;;;;;;;2.90;1.35;;;;;;;;;;5073291;28;20044;-71
2021/12/26 02:40:35;;;;;;;2.15;1.13;;;;;;;;;;5073647;28;20094;-72
2021/12/26 02:43:01;;;;;;;3.40;1.38;;;;;;;;;;5073036;28;20143;-72
2021/12/26 02:45:27;;;;;;;3.00;1.30;;;;;;;;;;5089979;28;20502;-71
2021/12/26 02:47:53;;;;;;;2.20;1.30;;;;;;;;;;5073321;28;20028;-72
2021/12/26 02:50:24;;;;;;;4.97;1.40;;;;;;;;;;5073242;28;20036;-71
2021/12/26 02:52:50;;;;;;;7.13;1.50;;;;;;;;;;5073625;28;20036;-71
2021/12/26 02:55:17;;;;;;;6.43;1.88;;;;;;;;;;5073255;28;20040;-71
2021/12/26 02:57:47;;;;;;;2.95;1.40;;;;;;;;;;5090181;28;20479;-71
2021/12/26 03:00:15;;;;;;;1.75;1.10;;;;;;;;;;5090429;28;20503;-71
2021/12/26 03:02:42;;;;;;;1.98;1.15;;;;;;;;;;5072046;28;20059;-71
2021/12/26 03:05:08;;;;;;;1.88;1.40;;;;;;;;;;5090068;28;20059;-72
2021/12/26 03:07:34;;;;;;;2.50;1.33;;;;;;;;;;5089976;28;20096;-72
2021/12/26 03:10:00;;;;;;;2.83;1.73;;;;;;;;;;5073103;28;20048;-71
2021/12/26 03:12:28;;;;;;;3.30;1.50;;;;;;;;;;5090357;28;20036;-71
2021/12/26 03:14:54;;;;;;;2.72;1.38;;;;;;;;;;5090644;28;20043;-71
2021/12/26 03:17:20;;;;;;;4.47;2.08;;;;;;;;;;5093995;28;20040;-72
2021/12/26 03:19:46;;;;;;;2.78;1.40;;;;;;;;;;5094211;28;20051;-71
2021/12/26 03:22:12;;;;;;;2.63;1.50;;;;;;;;;;5093874;28;20040;-71
2021/12/26 03:24:39;;;;;;;2.35;1.55;;;;;;;;;;5076916;28;20040;-71
2021/12/26 03:27:06;;;;;;;3.92;1.60;;;;;;;;;;5094090;28;20093;-72
2021/12/26 03:29:32;;;;;;;8.07;1.83;;;;;;;;;;5093686;28;20062;-71
2021/12/26 03:31:58;;;;;;;5.35;1.60;;;;;;;;;;5092263;28;20047;-71
2021/12/26 03:34:24;;;;;;;3.60;1.42;;;;;;;;;;5096759;28;20054;-71
2021/12/26 03:36:52;;;;;;;3.55;1.92;;;;;;;;;;5096831;28;20043;-71
2021/12/26 03:39:19;;;;;;;4.20;1.48;;;;;;;;;;5114120;28;20096;-71
2021/12/26 03:41:46;;;;;;;2.45;1.48;;;;;;;;;;5114033;28;20054;-71
2021/12/26 03:44:12;;;;;;;4.03;1.70;;;;;;;;;;5113771;28;20355;-71
2021/12/26 03:46:38;;;;;;;2.22;1.42;;;;;;;;;;5096650;28;20044;-71
2021/12/26 03:49:05;;;;;;;2.78;1.58;;;;;;;;;;5096959;28;20040;-71
2021/12/26 03:51:33;;;;;;;1.38;1.20;;;;;;;;;;5096961;28;20035;-71
2021/12/26 03:53:59;;;;;;;2.95;1.67;;;;;;;;;;5114025;28;20403;-72
2021/12/26 03:56:25;;;;;;;2.83;1.55;;;;;;;;;;5097056;28;20502;-72
2021/12/26 03:58:51;;;;;;;2.03;1.67;;;;;;;;;;5097200;28;20503;-73
2021/12/26 04:01:17;;;;;;;2.30;1.58;;;;;;;;;;5113588;28;20131;-72
2021/12/26 04:03:43;;;;;;;2.70;1.60;;;;;;;;;;5112080;28;20044;-72
2021/12/26 04:06:09;;;;;;;2.88;1.60;;;;;;;;;;5113556;28;20565;-71
2021/12/26 04:08:35;;;;;;;2.00;1.60;;;;;;;;;;5096598;28;20052;-71
2021/12/26 04:11:01;;;;;;;3.92;2.25;;;;;;;;;;5114219;28;20092;-71
2021/12/26 04:13:27;;;;;;;4.68;1.92;;;;;;;;;;5096486;28;20118;-71
2021/12/26 04:15:53;;;;;;;2.92;2.10;;;;;;;;;;5096647;28;20040;-71
2021/12/26 04:18:19;;;;;;;2.05;1.58;;;;;;;;;;5113549;28;20472;-71
2021/12/26 04:20:45;;;;;;;3.17;1.83;;;;;;;;;;5113804;28;20061;-71
2021/12/26 04:23:14;;;;;;;3.50;1.60;;;;;;;;;;5113610;28;20094;-71
2021/12/26 04:25:40;;;;;;;1.98;1.50;;;;;;;;;;5113824;28;20039;-72
2021/12/26 04:28:06;;;;;;;2.50;1.58;;;;;;;;;;5094872;28;20126;-71
2021/12/26 04:30:33;;;;;;;5.03;1.70;;;;;;;;;;5113350;28;20036;-72
2021/12/26 04:32:59;;;;;;;2.95;1.90;;;;;;;;;;5085802;28;20119;-71
2021/12/26 04:35:25;;;;;;;5.47;2.20;;;;;;;;;;5092755;28;20072;-71
2021/12/26 04:37:51;;;;;;;3.40;1.77;;;;;;;;;;5092792;28;20040;-71
2021/12/26 04:40:18;;;;;;;5.50;1.70;;;;;;;;;;5093113;28;20092;-71
2021/12/26 04:42:46;;;;;;;4.93;2.22;;;;;;;;;;5075973;28;20131;-71
2021/12/26 04:45:12;;;;;;;4.28;2.03;;;;;;;;;;5092722;28;20051;-71
2021/12/26 04:47:39;;;;;;;4.43;2.10;;;;;;;;;;5092541;28;20052;-71
2021/12/26 04:50:07;;;;;;;2.13;1.63;;;;;;;;;;5075357;28;20036;-71
2021/12/26 04:52:33;;;;;;;4.78;1.70;;;;;;;;;;5075282;28;20031;-71
2021/12/26 04:55:02;;;;;;;5.30;2.25;;;;;;;;;;5075537;28;20048;-71
2021/12/26 04:57:28;;;;;;;2.72;1.58;;;;;;;;;;5092244;28;20054;-71
2021/12/26 04:59:54;;;;;;;5.68;2.15;;;;;;;;;;5092435;28;20048;-71
2021/12/26 05:02:20;;;;;;;2.08;1.50;;;;;;;;;;5074303;28;20052;-72
2021/12/26 05:04:46;;;;;;;2.88;2.20;;;;;;;;;;5075547;28;20077;-72
2021/12/26 05:07:12;;;;;;;3.13;2.20;;;;;;;;;;5092097;28;20044;-72
2021/12/26 05:09:38;;;;;;;5.28;2.60;;;;;;;;;;5075372;28;20051;-72
2021/12/26 05:12:04;;;;;;;2.83;1.73;;;;;;;;;;5092073;28;20039;-72
2021/12/26 05:14:30;;;;;;;3.40;2.08;;;;;;;;;;5075526;28;20135;-71
2021/12/26 05:16:56;;;;;;;3.13;1.85;;;;;;;;;;5075188;28;20127;-71
2021/12/26 05:19:22;;;;;;;3.75;1.88;;;;;;;;;;5075460;28;20043;-71
2021/12/26 05:21:48;;;;;;;5.65;2.92;;;;;;;;;;5092405;28;20185;-71
2021/12/26 05:24:14;;;;;;;6.47;2.60;;;;;;;;;;5092147;28;20035;-71
2021/12/26 05:26:40;;;;;;;4.88;1.90;;;;;;;;;;5092070;28;20408;-71
2021/12/26 05:29:06;;;;;;;4.35;3.28;;;;;;;;;;5091941;28;20051;-71
2021/12/26 05:31:32;;;;;;;2.63;2.05;;;;;;;;;;5075259;28;20040;-71
2021/12/26 05:33:58;;;;;;;5.78;2.47;;;;;;;;;;5090456;28;20067;-71
2021/12/26 05:36:25;;;;;;;3.60;2.25;;;;;;;;;;5091632;28;20089;-71
2021/12/26 05:38:51;;;;;;;4.90;2.75;;;;;;;;;;5091572;28;20067;-71
2021/12/26 05:41:17;;;;;;;5.28;2.63;;;;;;;;;;5091775;28;20143;-71
2021/12/26 05:43:43;;;;;;;5.90;2.67;;;;;;;;;;5091886;28;20072;-71
2021/12/26 05:46:09;;;;;;;4.45;2.95;;;;;;;;;;5091543;28;20040;-72
2021/12/26 05:48:35;;;;;;;5.13;2.42;;;;;;;;;;5090665;28;20555;-71
2021/12/26 05:51:01;;;;;;;7.30;3.55;;;;;;;;;;5091418;28;20124;-72
2021/12/26 05:53:27;;;;;;;4.35;2.00;;;;;;;;;;5074642;28;20046;-72
2021/12/26 05:55:53;;;;;;;2.75;2.10;;;;;;;;;;5091333;28;20100;-71
2021/12/26 05:58:19;;;;;;;3.33;2.58;;;;;;;;;;5074796;28;20082;-71
2021/12/26 06:00:45;;;;;;;2.85;2.20;;;;;;;;;;5091433;28;20044;-71
2021/12/26 06:03:11;;;;;;;4.35;2.35;;;;;;;;;;5091787;28;20040;-71
2021/12/26 06:05:37;;;;;;;5.57;2.70;;;;;;;;;;5091061;28;20554;-71
2021/12/26 06:08:03;;;;;;;5.47;2.75;;;;;;;;;;5074532;28;20040;-71
2021/12/26 06:10:29;;;;;;;4.47;2.85;;;;;;;;;;5074106;28;20389;-71
2021/12/26 06:12:55;;;;;;;6.93;2.95;;;;;;;;;;5074194;28;20039;-71
2021/12/26 06:15:21;;;;;;;3.70;2.53;;;;;;;;;;5091104;28;20036;-71
2021/12/26 06:17:47;;;;;;;5.68;3.10;;;;;;;;;;5090016;28;20115;-71
2021/12/26 06:20:16;;;;;;;8.75;2.83;;;;;;;;;;5074739;28;20557;-71
2021/12/26 06:22:43;;;;;;;5.15;2.25;;;;;;;;;;5091375;28;20044;-71
2021/12/26 06:25:09;;;;;;;3.38;2.33;;;;;;;;;;5090999;28;20126;-71
2021/12/26 06:27:36;;;;;;;6.78;3.08;;;;;;;;;;5091458;28;20552;-71
2021/12/26 06:30:03;;;;;;;5.00;3.22;;;;;;;;;;5090980;28;20044;-71
2021/12/26 06:32:29;;;;;;;4.50;3.20;;;;;;;;;;5077375;28;20134;-71
2021/12/26 06:34:55;;;;;;;4.72;2.28;;;;;;;;;;5111242;28;20089;-71
2021/12/26 06:37:21;;;;;;;3.63;2.25;;;;;;;;;;5110893;28;20044;-71
2021/12/26 06:39:47;;;;;;;6.32;2.95;;;;;;;;;;5093649;28;20059;-71
2021/12/26 06:42:13;;;;;;;8.73;2.80;;;;;;;;;;5093749;28;20055;-71
2021/12/26 06:44:39;;;;;;;12.55;3.33;;;;;;;;;;5093729;28;20442;-71
2021/12/26 06:47:06;;;;;;;5.15;2.40;;;;;;;;;;5110437;28;20039;-72
2021/12/26 06:49:32;;;;;;;5.40;2.78;;;;;;;;;;5110348;28;20063;-71
2021/12/26 06:51:58;;;;;;;4.03;3.13;;;;;;;;;;5114818;28;20067;-71
2021/12/26 06:54:24;;;;;;;5.32;3.42;;;;;;;;;;5114718;28;20130;-71
2021/12/26 06:56:50;;;;;;;5.10;2.75;;;;;;;;;;5114936;28;20039;-71
2021/12/26 06:59:16;;;;;;;8.40;3.65;;;;;;;;;;5114637;28;20407;-71
2021/12/26 07:01:42;;;;;;;5.80;2.97;;;;;;;;;;5097442;28;20035;-71
2021/12/26 07:04:08;;;;;;;4.07;2.85;;;;;;;;;;5114437;28;20574;-71
2021/12/26 07:06:34;;;;;;;3.60;2.60;;;;;;;;;;5114309;28;20051;-72
2021/12/26 07:09:00;;;;;;;4.15;3.00;;;;;;;;;;5114443;28;20039;-72
2021/12/26 07:11:26;;;;;;;5.22;2.65;;;;;;;;;;5114576;28;20151;-72
2021/12/26 07:13:52;;;;;;;8.35;2.92;;;;;;;;;;5114587;28;20031;-72
2021/12/26 07:16:18;;;;;;;3.60;3.17;;;;;;;;;;5114427;28;20043;-72
2021/12/26 07:18:44;;;;;;;3.60;2.65;;;;;;;;;;5097581;28;20093;-71
2021/12/26 07:21:10;;;;;;;5.85;3.67;;;;;;;;;;5097247;28;20047;-72
2021/12/26 07:23:36;;;;;;;4.78;3.28;;;;;;;;;;5097574;28;20051;-71
2021/12/26 07:26:02;;;;;;;9.68;3.67;;;;;;;;;;5114442;28;20043;-72
2021/12/26 07:28:28;;;;;;;6.50;3.50;;;;;;;;;;5097102;28;20044;-72
2021/12/26 07:30:54;;;;;;;6.57;3.40;;;;;;;;;;5114134;28;20125;-72
2021/12/26 07:33:20;;;;;;;7.25;3.13;;;;;;;;;;5114208;28;20047;-72
2021/12/26 07:35:46;;;;;;;6.97;4.20;;;;;;;;;;5114042;28;20137;-72
2021/12/26 07:38:12;;;;;;;6.13;3.00;;;;;;;;;;5097020;28;20055;-72
2021/12/26 07:40:38;;;;;;;7.30;3.10;;;;;;;;;;5113741;28;20506;-72
2021/12/26 07:43:04;;;;;;;7.30;4.30;;;;;;;;;;5097098;28;20062;-72
2021/12/26 07:45:30;;;;;;;6.13;3.33;;;;;;;;;;5114509;28;20042;-72
2021/12/26 07:47:56;;;;;;;6.00;3.25;;;;;;;;;;5096775;28;20039;-72
2021/12/26 07:50:22;;;;;;;6.10;3.33;;;;;;;;;;5096471;28;20061;-72
2021/12/26 07:52:51;;;;;;;4.68;2.42;;;;;;;;;;5113773;28;20040;-72
2021/12/26 07:55:17;;;;;;;6.22;3.33;;;;;;;;;;5113952;28;20039;-72
2021/12/26 07:57:48;;;;;;;4.70;3.33;;;;;;;;;;5114383;28;20043;-72
2021/12/26 08:00:14;;;;;;;9.02;3.35;;;;;;;;;;5114143;28;20047;-72
2021/12/26 08:02:41;;;;;;;7.72;3.45;;;;;;;;;;5073572;28;20076;-72
2021/12/26 08:05:07;;;;;;;6.20;3.65;;;;;;;;;;5073221;28;20060;-72
2021/12/26 08:07:34;;;;;;;6.65;4.05;;;;;;;;;;5078139;28;20044;-71
2021/12/26 08:10:00;;;;;;;6.60;3.75;;;;;;;;;;5093341;28;20048;-72
2021/12/26 08:12:26;;;;;;;6.78;4.03;;;;;;;;;;5093525;28;20054;-72
2021/12/26 08:14:52;;;;;;;6.13;4.22;;;;;;;;;;5093253;28;20178;-72
2021/12/26 08:17:18;;;;;;;8.90;3.88;;;;;;;;;;5093439;28;20075;-72
2021/12/26 08:19:44;;;;;;;6.97;3.75;;;;;;;;;;5093523;28;20054;-72
2021/12/26 08:22:10;;;;;;;6.60;4.18;;;;;;;;;;5093240;28;20109;-72
2021/12/26 08:24:36;;;;;;;6.97;4.00;;;;;;;;;;5092782;28;20036;-72
2021/12/26 08:27:02;;;;;;;5.13;3.33;;;;;;;;;;5092758;28;20131;-72
2021/12/26 08:29:28;;;;;;;4.80;3.45;;;;;;;;;;5090635;28;20048;-72
2021/12/26 08:31:57;;;;;;;7.90;3.50;;;;;;;;;;5090119;28;20408;-72
2021/12/26 08:34:23;;;;;;;5.53;3.60;;;;;;;;;;5089726;28;20040;-72
2021/12/26 08:36:55;;;;;;;7.15;3.58;;;;;;;;;;5090370;28;20105;-72
2021/12/26 08:39:22;;;;;;;10.45;4.20;;;;;;;;;;5090765;28;20054;-72
2021/12/26 08:41:48;;;;;;;8.80;4.25;;;;;;;;;;5090691;28;20139;-72
2021/12/26 08:44:16;;;;;;;9.70;4.07;;;;;;;;;;5090460;28;20098;-72
2021/12/26 08:46:42;;;;;;;7.13;4.20;;;;;;;;;;5070338;28;20496;-72
2021/12/26 08:49:08;;;;;;;7.00;4.18;;;;;;;;;;5070537;28;20105;-72
2021/12/26 08:51:34;;;;;;;6.90;4.10;;;;;;;;;;5082270;28;20044;-72
2021/12/26 08:54:02;;;;;;;7.13;4.57;;;;;;;;;;5074233;28;20062;-72
2021/12/26 08:56:28;;;;;;;8.38;4.88;;;;;;;;;;5073940;28;20096;-71
2021/12/26 08:58:54;;;;;;;6.30;4.25;;;;;;;;;;5091227;28;20482;-71
2021/12/26 09:01:20;;;;;;;9.20;4.10;;;;;;;;;;5091723;28;20071;-71
2021/12/26 09:03:46;;;;;;;5.68;4.15;;;;;;;;;;5091774;28;20142;-72
2021/12/26 09:06:12;;;;;;;6.70;4.20;;;;;;;;;;5074344;28;20056;-71
2021/12/26 09:08:38;;;;;;;10.32;4.38;;;;;;;;;;5090928;28;20507;-71
2021/12/26 09:11:04;;;;;;;5.20;4.03;;;;;;;;;;5080015;28;20028;-71
2021/12/26 09:13:31;;;;;;;6.18;4.35;;;;;;;;;;5082617;28;20035;-71
2021/12/26 09:15:57;;;;;;;6.38;3.90;;;;;;;;;;5072911;28;20036;-71
2021/12/26 09:18:23;;;;;;;8.38;4.18;;;;;;;;;;5071501;28;20036;-72
2021/12/26 09:20:49;;;;;;;7.13;4.35;;;;;;;;;;5075870;28;20046;-71
2021/12/26 09:23:15;;;;;;;6.18;3.83;;;;;;;;;;5074193;28;20399;-71
2021/12/26 09:25:41;;;;;;;8.20;4.93;;;;;;;;;;5073913;28;20044;-71
2021/12/26 09:28:07;;;;;;;6.65;3.83;;;;;;;;;;5081600;28;20053;-71
2021/12/26 09:30:32;;;;;;;7.10;4.43;;;;;;;;;;5068655;28;20448;-71
2021/12/26 09:32:58;;;;;;;6.22;3.75;;;;;;;;;;5085101;28;20039;-70
2021/12/26 09:35:24;;;;;;;9.45;4.68;;;;;;;;;;5075091;28;20159;-71
2021/12/26 09:37:50;;;;;;;7.93;4.15;;;;;;;;;;5087676;28;20086;-71
2021/12/26 09:40:17;;;;;;;6.38;4.45;;;;;;;;;;5088426;28;20454;-71
2021/12/26 09:42:44;;;;;;;7.15;3.97;;;;;;;;;;5088874;28;20230;-71
2021/12/26 09:45:10;;;;;;;7.35;4.35;;;;;;;;;;5089268;28;20044;-71
2021/12/26 09:47:37;;;;;;;9.63;4.20;;;;;;;;;;5088147;28;20044;-71
2021/12/26 09:50:03;;;;;;;6.82;4.20;;;;;;;;;;5088012;28;20050;-71
2021/12/26 09:52:29;;;;;;;7.78;3.85;;;;;;;;;;5088102;28;20052;-71
2021/12/26 09:54:55;;;;;;;7.93;3.63;;;;;;;;;;5088817;28;20035;-72
2021/12/26 09:57:23;;;;;;;10.02;4.45;;;;;;;;;;5088617;28;20455;-71
2021/12/26 09:59:49;;;;;;;4.88;3.72;;;;;;;;;;5088106;28;20044;-71
2021/12/26 10:02:18;;;;;;;5.53;3.80;;;;;;;;;;5087591;28;20048;-71
2021/12/26 10:04:45;;;;;;;6.38;3.83;;;;;;;;;;5088847;28;20052;-71
2021/12/26 10:07:16;;;;;;;7.43;4.72;;;;;;;;;;5088943;28;20269;-72
2021/12/26 10:09:45;;;;;;;5.70;3.95;;;;;;;;;;5088192;28;20122;-71
2021/12/26 10:12:14;;;;;;;7.35;3.92;;;;;;;;;;5082409;28;20040;-71
2021/12/26 10:14:43;;;;;;;3.70;2.55;;;;;;;;;;5087350;28;20496;-72
2021/12/26 10:17:10;;;;;;;7.13;4.07;;;;;;;;;;5087716;28;20108;-70
2021/12/26 10:19:37;;;;;;;6.63;4.00;;;;;;;;;;5077864;28;20048;-71
2021/12/26 10:22:04;;;;;;;9.25;4.13;;;;;;;;;;5067127;28;20067;-71
2021/12/26 10:24:35;;;;;;;7.28;4.05;;;;;;;;;;5067336;28;20131;-71
2021/12/26 10:27:01;;;;;;;9.63;3.88;;;;;;;;;;5050948;28;20086;-72
2021/12/26 10:29:27;;;;;;;8.52;3.45;;;;;;;;;;5068405;28;20119;-71
2021/12/26 10:31:56;;;;;;;6.63;3.92;;;;;;;;;;5068422;28;20085;-71
2021/12/26 10:34:27;;;;;;;7.85;3.78;;;;;;;;;;5108155;28;20203;-71
2021/12/26 10:36:52;;;;;;;;;;;;;;;;;;5092196;28;20478;-71
2021/12/26 10:39:20;;;;;;;6.55;3.70;;;;;;;;;;5091752;28;19915;-72
2021/12/26 10:41:48;;;;;;;6.75;3.35;;;;;;;;;;5108621;28;20043;-71
2021/12/26 10:44:20;;;;;;;5.93;3.42;;;;;;;;;;5109036;28;20142;-71
2021/12/26 10:46:51;;;;;;;6.45;3.80;;;;;;;;;;5108389;28;20050;-71
2021/12/26 10:49:17;;;;;;;;;;;;;;;;;;5092031;28;20050;-72
2021/12/26 10:51:43;;;;;;;4.38;3.22;;;;;;;;;;5107632;28;20379;-72
2021/12/26 10:54:16;;;;;;;6.40;3.53;;;;;;;;;;5107733;28;20036;-71
2021/12/26 10:56:42;;;;;;;5.13;3.60;;;;;;;;;;5105234;28;20122;-72
2021/12/26 10:59:18;;;;;;;5.10;3.28;;;;;;;;;;5084454;28;20128;-71
2021/12/26 11:01:44;;;;;;;5.85;3.28;;;;;;;;;;5087140;28;20080;-71
2021/12/26 11:04:11;;;;;;;9.27;3.65;;;;;;;;;;5104122;28;20040;-72
2021/12/26 11:06:57;;;;;;;8.20;3.85;;;;;;;;;;5089898;28;20499;-72
2021/12/26 11:09:24;;;;;;;9.30;3.88;;;;;;;;;;5106843;28;20051;-72
2021/12/26 11:12:00;;;;;;;5.70;4.03;;;;;;;;;;5106924;28;20492;-72
2021/12/26 11:14:26;;;;;;;6.20;3.40;;;;;;;;;;5106744;28;20050;-72
2021/12/26 11:16:52;;;;;;;5.32;3.60;;;;;;;;;;5106911;28;20511;-72
2021/12/26 11:19:37;;;;;;;7.53;3.75;;;;;;;;;;5089809;28;20122;-72
2021/12/26 11:22:03;;;;;;;7.75;4.43;;;;;;;;;;5107074;28;20047;-72
2021/12/26 11:24:29;;;;;;;7.35;3.53;;;;;;;;;;5089722;28;20048;-72
2021/12/26 11:26:55;;;;;;;6.03;3.65;;;;;;;;;;5089916;28;20527;-73
2021/12/26 11:29:21;;;;;;;6.50;3.42;;;;;;;;;;5106669;28;20044;-73
2021/12/26 11:31:50;;;;;;;4.93;3.63;;;;;;;;;;5090107;28;20046;-73
2021/12/26 11:34:16;;;;;;;4.68;3.60;;;;;;;;;;5067786;28;20043;-74
2021/12/26 11:36:42;;;;;;;4.82;3.08;;;;;;;;;;5088269;28;20032;-73
2021/12/26 11:39:09;;;;;;;9.13;3.95;;;;;;;;;;5090597;28;20086;-73
2021/12/26 11:41:47;;;;;;;5.88;2.92;;;;;;;;;;5073275;28;20048;-73
2021/12/26 11:44:25;;;;;;;6.65;3.20;;;;;;;;;;5090713;28;20097;-73
2021/12/26 11:46:59;;;;;;;6.68;3.50;;;;;;;;;;5072926;28;20127;-73
2021/12/26 11:49:45;;;;;;;6.80;3.63;;;;;;;;;;5089993;28;20496;-74
2021/12/26 11:52:29;;;;;;;4.43;3.15;;;;;;;;;;5072866;28;20491;-74
2021/12/26 11:55:04;;;;;;;8.25;4.25;;;;;;;;;;5073382;28;20035;-75
2021/12/26 11:57:46;;;;;;;4.18;3.30;;;;;;;;;;5089870;28;20051;-73
2021/12/26 12:00:15;;;;;;;5.50;3.88;;;;;;;;;;5089738;28;20143;-73
2021/12/26 12:02:42;;;;;;;6.68;3.63;;;;;;;;;;5088414;28;20047;-73
2021/12/26 12:05:11;;;;;;;6.28;3.70;;;;;;;;;;5089549;28;20108;-73
2021/12/26 12:07:47;;;;;;;7.57;4.03;;;;;;;;;;5089855;28;20424;-74
2021/12/26 12:10:43;;;;;;;4.75;2.83;;;;;;;;;;5072231;28;20052;-74
2021/12/26 12:13:11;;;;;;;7.65;3.88;;;;;;;;;;5068882;28;20308;-74
2021/12/26 12:15:48;;;;;;;7.90;4.25;;;;;;;;;;5089414;28;20255;-75
2021/12/26 12:18:24;;;;;;;5.95;3.45;;;;;;;;;;5072382;28;20131;-75
2021/12/26 12:21:06;;;;;;;7.25;3.80;;;;;;;;;;5089162;28;20044;-74
2021/12/26 12:23:32;;;;;;;9.63;4.50;;;;;;;;;;5089159;28;20040;-75
2021/12/26 12:25:58;;;;;;;6.40;3.65;;;;;;;;;;5089197;28;20036;-75
2021/12/26 12:28:30;;;;;;;6.97;3.35;;;;;;;;;;5089034;28;20566;-77
2021/12/26 12:30:57;;;;;;;8.57;3.85;;;;;;;;;;5088900;28;20060;-75
2021/12/26 12:33:28;;;;;;;10.07;4.07;;;;;;;;;;5087598;28;20040;-76
2021/12/26 12:35:55;;;;;;;6.97;4.10;;;;;;;;;;5089090;28;20044;-75
2021/12/26 12:38:27;;;;;;;8.30;3.85;;;;;;;;;;5088674;28;20040;-76
2021/12/26 12:40:54;;;;;;;6.32;3.45;;;;;;;;;;5089359;28;20173;-76
2021/12/26 12:43:22;;;;;;;5.43;3.75;;;;;;;;;;5088946;28;20043;-76
2021/12/26 12:45:54;;;;;;;6.95;3.78;;;;;;;;;;5071766;28;20040;-76
2021/12/26 12:48:31;;;;;;;6.97;3.40;;;;;;;;;;5071658;28;20039;-76
2021/12/26 12:50:58;;;;;;;5.28;3.38;;;;;;;;;;5089131;28;20047;-76
2021/12/26 12:53:51;;;;;;;7.68;4.13;;;;;;;;;;5089623;28;20044;-76
2021/12/26 12:56:26;;;;;;;8.50;3.92;;;;;;;;;;5084967;28;20062;-76
2021/12/26 12:58:52;;;;;;;7.28;3.38;;;;;;;;;;5088632;28;20100;-76
2021/12/26 13:01:34;;;;;;;4.75;2.92;;;;;;;;;;5072342;28;20047;-76
2021/12/26 13:04:00;;;;;;;7.13;3.67;;;;;;;;;;5088212;28;20074;-77
2021/12/26 13:06:26;;;;;;;6.72;3.33;;;;;;;;;;5091509;28;20060;-76
2021/12/26 13:08:52;;;;;;;5.22;3.67;;;;;;;;;;5090244;28;20067;-77
2021/12/26 13:11:18;;;;;;;7.05;3.88;;;;;;;;;;5075513;28;20039;-77
2021/12/26 13:13:45;;;;;;;7.82;4.32;;;;;;;;;;5095761;28;20514;-77
2021/12/26 13:16:11;;;;;;;6.50;3.42;;;;;;;;;;5092430;28;20127;-78
2021/12/26 13:18:40;;;;;;;6.63;3.35;;;;;;;;;;5077992;28;20044;-77
2021/12/26 13:21:09;;;;;;;7.55;4.00;;;;;;;;;;5093571;28;20073;-76
2021/12/26 13:23:36;;;;;;;7.68;3.28;;;;;;;;;;5091964;28;20040;-78
2021/12/26 13:26:03;;;;;;;4.95;3.38;;;;;;;;;;5093522;28;20040;-77
2021/12/26 13:28:30;;;;;;;7.88;3.97;;;;;;;;;;5079947;28;20044;-78
2021/12/26 13:30:58;;;;;;;6.70;3.25;;;;;;;;;;5075499;28;20545;-78
2021/12/26 13:33:23;;;;;;;8.57;3.75;;;;;;;;;;5104578;28;20096;-75
2021/12/26 13:35:50;;;;;;;7.97;3.85;;;;;;;;;;5095904;28;20566;-77
2021/12/26 13:38:16;;;;;;;5.97;3.50;;;;;;;;;;5111738;28;20122;-77
2021/12/26 13:40:44;;;;;;;7.32;3.40;;;;;;;;;;5111748;28;20058;-79
2021/12/26 13:43:10;;;;;;;6.45;3.50;;;;;;;;;;5110206;28;20130;-78
2021/12/26 13:45:38;;;;;;;6.70;3.15;;;;;;;;;;5094862;28;20071;-77
2021/12/26 13:48:04;;;;;;;9.20;4.03;;;;;;;;;;5113223;28;20051;-76
2021/12/26 13:50:31;;;;;;;5.38;3.10;;;;;;;;;;5093522;28;20132;-77
2021/12/26 13:53:01;;;;;;;9.85;3.53;;;;;;;;;;5094896;28;20034;-77
2021/12/26 13:55:27;;;;;;;7.97;4.05;;;;;;;;;;5111256;28;20036;-77
2021/12/26 13:58:00;;;;;;;6.38;3.55;;;;;;;;;;5091956;28;20043;-78
2021/12/26 14:00:26;;;;;;;6.85;3.97;;;;;;;;;;5108742;28;20040;-78
2021/12/26 14:02:52;;;;;;;5.57;3.28;;;;;;;;;;5109281;28;20050;-78
2021/12/26 14:05:20;;;;;;;4.65;3.28;;;;;;;;;;5091193;28;20051;-78
2021/12/26 14:07:53;;;;;;;6.50;4.00;;;;;;;;;;5109342;28;20040;-78
2021/12/26 14:10:20;;;;;;;7.10;3.90;;;;;;;;;;5108141;28;20108;-77
2021/12/26 14:12:49;;;;;;;6.50;2.97;;;;;;;;;;5107991;28;20126;-78
2021/12/26 14:15:37;;;;;;;6.30;3.15;;;;;;;;;;5108044;28;20423;-78
2021/12/26 14:18:15;;;;;;;8.15;3.50;;;;;;;;;;5107850;28;20490;-78
2021/12/26 14:20:44;;;;;;;6.30;4.03;;;;;;;;;;5090933;28;20039;-77
2021/12/26 14:23:19;;;;;;;6.30;3.63;;;;;;;;;;5090602;28;20047;-77
2021/12/26 14:25:45;;;;;;;6.25;3.33;;;;;;;;;;5090815;28;20043;-77
2021/12/26 14:28:18;;;;;;;5.65;3.58;;;;;;;;;;5108323;28;20043;-78
2021/12/26 14:30:45;;;;;;;5.03;3.30;;;;;;;;;;5107267;28;20184;-77
2021/12/26 14:33:12;;;;;;;7.95;3.50;;;;;;;;;;5107840;28;20065;-77
2021/12/26 14:35:38;;;;;;;7.05;3.38;;;;;;;;;;5090221;28;20051;-78
2021/12/26 14:38:08;;;;;;;5.15;3.28;;;;;;;;;;5107878;28;20040;-77
2021/12/26 14:40:34;;;;;;;11.23;3.67;;;;;;;;;;5112260;28;20035;-78
2021/12/26 14:43:06;;;;;;;7.78;3.40;;;;;;;;;;5107468;28;20095;-78
2021/12/26 14:45:32;;;;;;;6.75;3.78;;;;;;;;;;5090621;28;20040;-77
2021/12/26 14:47:58;;;;;;;8.15;3.53;;;;;;;;;;5107368;28;20043;-78